Data for 10/07/2015

Time Sea-Level Adjusted Pressure Absolute Pressure Temperature Relative Humidity Dew Point   
(mb) (inHg) (mb) (inHg) (C) (F) (%) (C) (F)
00:05 1021 30.15 850 25.1 8.5 47.4 61 1.5 34.7
00:10 1021 30.15 850 25.1 8.3 47 62 1.4 34.6
00:15 1021 30.15 850 25.1 8.3 46.9 62 1.5 34.6
00:20 1021 30.15 850 25.1 8.2 46.7 63 1.5 34.7
00:25 1021 30.15 850 25.1 8 46.5 63 1.5 34.7
00:30 1021 30.15 850 25.1 7.8 46 64 1.5 34.7
00:35 1021 30.15 850 25.1 7.7 45.8 65 1.4 34.6
00:40 1021 30.15 850 25.1 7.6 45.7 64 1.4 34.4
00:45 1021 30.15 850 25.1 7.9 46.1 63 1.2 34.1
00:50 1021 30.15 850 25.1 8.2 46.7 62 1.3 34.3
00:55 1021 30.15 850 25.1 8.2 46.7 62 1.4 34.5
01:00 1021 30.15 850 25.1 8.1 46.5 62 1.3 34.3
01:05 1021 30.15 850 25.1 8.4 47 60 1.1 34
01:10 1021 30.15 850 25.1 8.6 47.6 59 1.1 34
01:15 1021 30.15 850 25.1 9 48.2 57 0.9 33.6
01:20 1021 30.15 850 25.1 9.2 48.5 57 1.2 34.1
01:25 1021 30.15 850 25.1 9 48.2 57 1.1 33.9
01:30 1021 30.15 850 25.1 9.2 48.5 57 1.1 33.9
01:35 1021 30.15 850 25.1 9.6 49.3 54 0.8 33.4
01:40 1021 30.15 850 25.1 9.8 49.6 55 1.3 34.3
01:45 1021 30.15 850 25.1 9.5 49 56 1.2 34.2
01:50 1021 30.15 850 25.1 9.2 48.5 58 1.3 34.3
01:55 1021 30.15 850 25.1 9 48.1 58 1.1 34.1
02:00 1021 30.15 850 25.1 9.1 48.3 57 1.1 33.9
02:05 1021 30.15 850 25.1 9 48.3 57 1 33.8
02:10 1021 30.15 850 25.1 9.2 48.5 57 1.2 34.2
02:15 1021 30.15 850 25.1 9.4 48.9 54 0.5 32.9
02:20 1021 30.15 850 25.1 9.9 49.7 53 0.9 33.6
02:25 1021 30.15 850 25.1 9.9 49.8 53 0.9 33.7
02:30 1021 30.15 850 25.1 9.7 49.5 57 1.7 35
02:35 1021 30.15 850 25.1 9.4 48.9 57 1.4 34.4
02:40 1021 30.15 850 25.1 9.2 48.5 58 1.4 34.5
02:45 1021 30.15 850 25.1 8.8 47.9 59 1.4 34.5
02:50 1021 30.15 850 25.1 8.7 47.6 60 1.5 34.7
02:55 1021 30.15 850 25.1 9 48.1 59 1.5 34.7
03:00 1021 30.15 850 25.1 8.9 48 61 1.8 35.2
03:05 1021 30.15 850 25.1 8.5 47.4 61 1.5 34.7
03:10 1021 30.15 850 25.1 8.1 46.7 63 1.5 34.8
03:15 1021 30.15 850 25.1 7.9 46.2 63 1.3 34.3
03:20 1021 30.15 850 25.1 8.6 47.4 58 0.9 33.6
03:25 1021 30.15 850 25.1 9.2 48.6 55 0.7 33.2
03:30 1021 30.15 850 25.1 9.7 49.5 55 1.1 34
03:35 1021 30.15 850 25.1 9.3 48.8 57 1.4 34.5
03:40 1021 30.15 850 25.1 8.9 48 58 1 33.8
03:45 1021 30.15 850 25.1 9 48.3 58 1.2 34.2
03:50 1021 30.15 850 25.1 9.1 48.4 56 0.9 33.6
03:55 1021 30.15 850 25.1 9.3 48.8 57 1.2 34.1
04:00 1021 30.15 850 25.1 9.4 49 55 1 33.7
04:05 1021 30.15 850 25.1 9.6 49.3 55 1.1 34
04:10 1021 30.15 850 25.1 9.6 49.2 56 1.2 34.1
04:15 1021 30.15 850 25.1 9.7 49.4 55 1.1 34.1
04:20 1021 30.15 850 25.1 9.5 49.1 57 1.5 34.6
04:25 1021 30.15 850 25.1 9.3 48.7 57 1.2 34.1
04:30 1021 30.15 851 25.13 9.4 48.9 56 1.1 34.1
04:35 1021 30.15 851 25.13 9.5 49.2 56 1.2 34.2
04:40 1021 30.15 851 25.13 9.8 49.6 56 1.4 34.5
04:45 1021 30.15 851 25.13 9.4 48.9 59 1.8 35.3
04:50 1022 30.18 851 25.13 8.9 48 60 1.6 34.9
04:55 1021 30.15 851 25.13 9 48.3 56 0.8 33.5
05:00 1021 30.15 851 25.13 9.8 49.6 54 1.1 33.9
05:05 1021 30.15 850 25.1 9.7 49.4 57 1.7 35.1
05:10 1021 30.15 851 25.13 8.9 47.9 61 1.7 35.1
05:15 1021 30.15 851 25.13 8.3 47 63 1.8 35.3
05:20 1021 30.15 851 25.13 8.2 46.8 63 1.7 35
05:25 1022 30.18 851 25.13 7.8 46.1 65 1.8 35.2
05:30 1021 30.15 851 25.13 7.5 45.5 66 1.7 35
05:35 1022 30.18 851 25.13 7.3 45.2 66 1.5 34.7
05:40 1022 30.18 851 25.13 7.5 45.4 66 1.5 34.7
05:45 1022 30.18 851 25.13 7.3 45.2 67 1.5 34.8
05:50 1022 30.18 851 25.13 7.4 45.3 66 1.4 34.5
05:55 1022 30.18 851 25.13 7.9 46.3 61 0.9 33.6
06:00 1022 30.18 851 25.13 8.6 47.4 60 1.2 34.1
06:05 1022 30.18 851 25.13 8.5 47.3 62 1.7 35.1
06:10 1022 30.18 851 25.13 8.3 46.9 63 1.6 34.9
06:15 1022 30.18 851 25.13 8.2 46.8 63 1.7 35
06:20 1022 30.18 851 25.13 8.2 46.8 62 1.3 34.4
06:25 1022 30.18 851 25.13 8.3 47 62 1.5 34.8
06:30 1022 30.18 851 25.13 8.3 46.9 61 1.3 34.4
06:35 1022 30.18 852 25.16 8.4 47.1 62 1.5 34.6
06:40 1022 30.18 852 25.16 8.5 47.2 61 1.4 34.6
06:45 1022 30.18 852 25.16 8.5 47.2 61 1.5 34.7
06:50 1022 30.18 852 25.16 8.4 47.1 62 1.6 34.9
06:55 1022 30.18 852 25.16 8.2 46.7 64 1.7 35.1
07:00 1022 30.18 852 25.16 8.1 46.6 63 1.5 34.7
07:05 1022 30.18 851 25.13 8.4 47 62 1.6 34.9
07:10 1022 30.18 851 25.13 8.5 47.3 61 1.5 34.6
07:15 1022 30.18 852 25.16 8.8 47.8 60 1.6 34.8
07:20 1022 30.18 852 25.16 8.8 47.8 62 2 35.5
07:25 1022 30.18 852 25.16 8.4 47.1 63 1.8 35.2
07:30 1023 30.21 852 25.16 8.6 47.5 60 1.4 34.6
07:35 1022 30.18 852 25.16 9.2 48.6 58 1.4 34.4
07:40 1022 30.18 852 25.16 9.6 49.3 57 1.6 34.9
07:45 1022 30.18 852 25.16 9.7 49.4 58 1.9 35.4
07:50 1022 30.18 852 25.16 9.6 49.4 58 1.9 35.4
07:55 1022 30.18 852 25.16 9.8 49.6 59 2.1 35.7
08:00 1022 30.18 852 25.16 9.8 49.7 59 2.3 36.1
08:05 1022 30.18 852 25.16 9.9 49.9 61 2.7 36.8
08:10 1022 30.18 852 25.16 10.1 50.1 57 2 35.6
08:15 1022 30.18 851 25.13 10.2 50.4 59 2.7 36.9
08:20 1022 30.18 852 25.16 10.4 50.6 59 2.7 36.8
08:25 1022 30.18 851 25.13 10.6 51.1 58 2.7 36.8
08:30 1022 30.18 852 25.16 10.9 51.6 57 2.8 37
08:35 1022 30.18 852 25.16 11 51.9 57 2.9 37.3
08:40 1022 30.18 852 25.16 11.3 52.3 55 2.5 36.6
08:45 1022 30.18 852 25.16 11.6 52.9 52 2.2 35.9
08:50 1022 30.18 852 25.16 11.9 53.5 51 2.3 36.1
08:55 1022 30.18 852 25.16 12.3 54.2 50 2.3 36.1
09:00 1022 30.18 852 25.16 12.8 55 49 2.5 36.5
09:05 1023 30.21 852 25.16 13.5 56.3 44 1.6 34.9
09:10 1023 30.21 852 25.16 14.7 58.5 42 2.1 35.8
09:15 1023 30.21 852 25.16 15.9 60.6 37 1.4 34.6
09:20 1023 30.21 852 25.16 17.2 62.9 34 1.4 34.6
09:25 1023 30.21 852 25.16 17.6 63.7 35 2.1 35.7
09:30 1023 30.21 852 25.16 17.5 63.4 38 3 37.4
09:35 1023 30.21 852 25.16 17.3 63.1 40 3.9 39
09:40 1023 30.21 852 25.16 17.1 62.8 39 3.1 37.6
09:45 1023 30.21 852 25.16 17.3 63.2 40 3.8 38.8
09:50 1023 30.21 852 25.16 17.5 63.4 40 3.8 38.8
09:55 1023 30.21 852 25.16 17.7 63.9 41 4.5 40
10:00 1023 30.21 852 25.16 17.7 63.8 39 3.7 38.7
10:05 1023 30.21 852 25.16 18.3 64.9 38 3.7 38.7
10:10 1023 30.21 852 25.16 18.3 65 40 4.5 40.1
10:15 1023 30.21 852 25.16 17.7 63.9 38 3.4 38.1
10:20 1023 30.21 852 25.16 18.1 64.6 38 3.9 39
10:25 1023 30.21 852 25.16 18.4 65 39 4.2 39.5
10:30 1023 30.21 852 25.16 18.5 65.4 39 4.4 39.9
10:35 1023 30.21 852 25.16 18.7 65.7 35 3.1 37.7
10:40 1023 30.21 852 25.16 19.1 66.4 34 3 37.3
10:45 1023 30.21 852 25.16 19.1 66.4 36 3.9 39
10:50 1023 30.21 852 25.16 18.8 65.9 35 3.1 37.6
10:55 1022 30.18 852 25.16 18.8 65.8 37 3.9 39
11:00 1022 30.18 852 25.16 18.2 64.8 35 2.8 37.1
11:05 1022 30.18 852 25.16 18.9 65.9 35 3.3 37.9
11:10 1022 30.18 851 25.13 19.3 66.7 33 2.9 37.1
11:15 1022 30.18 851 25.13 19.5 67.2 33 3 37.3
11:20 1022 30.18 851 25.13 19.7 67.5 33 3.2 37.8
11:25 1022 30.18 851 25.13 19.7 67.4 34 3.7 38.7
11:30 1022 30.18 851 25.13 19.4 66.9 33 2.7 36.9
11:35 1022 30.18 851 25.13 19.3 66.7 34 3.1 37.6
11:40 1022 30.18 851 25.13 19.1 66.3 35 3.2 37.8
11:45 1022 30.18 851 25.13 19.2 66.6 34 3.2 37.8
11:50 1022 30.18 851 25.13 19 66.2 36 3.7 38.6
11:55 1022 30.18 851 25.13 18.8 65.9 35 3.2 37.7
12:00 1022 30.18 851 25.13 19.1 66.4 35 3.3 38
12:05 1022 30.18 851 25.13 19.2 66.6 33 2.8 37.1
12:10 1022 30.18 851 25.13 19.6 67.2 33 3.1 37.5
12:15 1022 30.18 851 25.13 19.3 66.7 34 3.1 37.6
12:20 1022 30.18 851 25.13 19.3 66.7 33 2.8 37
12:25 1022 30.18 851 25.13 19.3 66.7 35 3.6 38.5
12:30 1022 30.18 851 25.13 19.1 66.3 34 2.9 37.2
12:35 1022 30.18 851 25.13 19.1 66.4 34 2.9 37.2
12:40 1022 30.18 851 25.13 19.8 67.6 33 3 37.4
12:45 1022 30.18 851 25.13 19.8 67.6 33 3.1 37.5
12:50 1022 30.18 851 25.13 19.5 67 34 3.3 37.9
12:55 1022 30.18 851 25.13 19.1 66.4 34 3 37.4
13:00 1022 30.18 851 25.13 19.5 67.1 33 2.8 37
13:05 1022 30.18 851 25.13 19.5 67.1 33 2.9 37.2
13:10 1022 30.18 851 25.13 19.4 66.9 34 3.5 38.2
13:15 1022 30.18 851 25.13 19.3 66.8 33 2.6 36.8
13:20 1022 30.18 851 25.13 19.3 66.8 33 2.8 37.1
13:25 1022 30.18 851 25.13 19.4 66.9 33 2.9 37.2
13:30 1022 30.18 851 25.13 19.3 66.8 33 3 37.3
13:35 1022 30.18 851 25.13 19.3 66.8 33 3 37.3
13:40 1021 30.15 851 25.13 19.3 66.8 34 3.3 38
13:45 1021 30.15 851 25.13 18.9 66 35 3.1 37.6
13:50 1021 30.15 851 25.13 19.1 66.4 35 3.4 38.1
13:55 1021 30.15 851 25.13 19.1 66.4 36 3.7 38.6
14:00 1021 30.15 851 25.13 19 66.3 36 3.6 38.5
14:05 1021 30.15 851 25.13 19.1 66.5 35 3.5 38.3
14:10 1021 30.15 850 25.1 19.2 66.6 35 3.5 38.3
14:15 1021 30.15 850 25.1 19.4 66.9 35 3.7 38.6
14:20 1021 30.15 850 25.1 19.5 67.2 33 3.1 37.6
14:25 1021 30.15 850 25.1 19.6 67.3 33 3.2 37.7
14:30 1021 30.15 850 25.1 19.3 66.7 34 3.3 38
14:35 1021 30.15 850 25.1 19.2 66.5 34 3 37.3
14:40 1021 30.15 851 25.13 19.3 66.7 35 3.6 38.4
14:45 1021 30.15 851 25.13 19.1 66.4 34 2.9 37.2
14:50 1021 30.15 851 25.13 19 66.3 34 2.8 37
14:55 1021 30.15 850 25.1 19 66.1 33 2.3 36.2
15:00 1021 30.15 850 25.1 19 66.2 33 2.5 36.6
15:05 1021 30.15 850 25.1 19 66.3 33 2.5 36.5
15:10 1021 30.15 850 25.1 19 66.1 33 2.3 36.2
15:15 1021 30.15 850 25.1 18.9 66 33 2.3 36.2
15:20 1021 30.15 850 25.1 18.8 65.9 32 2 35.7
15:25 1021 30.15 851 25.13 18.8 65.8 32 2.1 35.7
15:30 1021 30.15 851 25.13 18.8 65.8 32 2 35.6
15:35 1021 30.15 851 25.13 18.8 65.8 32 1.9 35.3
15:40 1021 30.15 851 25.13 18.6 65.5 33 2.3 36.2
15:45 1021 30.15 851 25.13 18.7 65.6 32 1.6 34.9
15:50 1021 30.15 851 25.13 18.8 65.8 32 1.7 35
15:55 1021 30.15 851 25.13 18.8 65.8 32 1.8 35.2
16:00 1021 30.15 851 25.13 18.8 65.8 32 2 35.6
16:05 1022 30.18 851 25.13 18.7 65.6 32 2 35.6
16:10 1022 30.18 851 25.13 18.7 65.7 32 1.9 35.4
16:15 1022 30.18 851 25.13 18.7 65.6 32 1.9 35.4
16:20 1021 30.15 851 25.13 18.7 65.7 32 1.9 35.4
16:25 1021 30.15 851 25.13 18.7 65.6 32 2 35.6
16:30 1021 30.15 851 25.13 18.5 65.4 33 2 35.6
16:35 1022 30.18 851 25.13 18.5 65.3 33 2 35.5
16:40 1021 30.15 851 25.13 18.4 65.2 33 1.9 35.4
16:45 1021 30.15 851 25.13 18.3 65 36 3.1 37.5
16:50 1022 30.18 851 25.13 18.1 64.5 37 3.2 37.8
16:55 1022 30.18 851 25.13 17.8 64.1 39 3.7 38.6
17:00 1022 30.18 851 25.13 17.6 63.8 38 3.4 38.2
17:05 1022 30.18 851 25.13 17.6 63.6 39 3.6 38.4
17:10 1022 30.18 851 25.13 17.5 63.5 41 4.2 39.6
17:15 1022 30.18 851 25.13 17.4 63.4 39 3.4 38.2
17:20 1022 30.18 851 25.13 17.5 63.4 38 3 37.3
17:25 1022 30.18 851 25.13 17.5 63.5 38 3.2 37.8
17:30 1022 30.18 851 25.13 17.4 63.4 38 3.1 37.6
17:35 1022 30.18 851 25.13 17.4 63.2 41 3.9 39.1
17:40 1022 30.18 851 25.13 17.1 62.7 39 3.1 37.6
17:45 1022 30.18 851 25.13 17 62.7 39 2.9 37.3
17:50 1022 30.18 851 25.13 17 62.5 40 3.4 38.2
17:55 1022 30.18 851 25.13 16.9 62.4 41 3.7 38.6
18:00 1022 30.18 851 25.13 16.9 62.4 41 3.8 38.9
18:05 1022 30.18 851 25.13 16.7 62.1 44 4.4 40
18:10 1022 30.18 851 25.13 16.3 61.3 45 4.5 40
18:15 1022 30.18 851 25.13 16 60.9 47 4.8 40.6
18:20 1022 30.18 851 25.13 15.9 60.6 47 4.8 40.6
18:25 1022 30.18 851 25.13 15.9 60.7 46 4.4 39.9
18:30 1022 30.18 851 25.13 16 60.9 45 4.3 39.8
18:35 1022 30.18 851 25.13 16.2 61.1 46 4.7 40.5
18:40 1022 30.18 852 25.16 16.2 61.1 45 4.4 39.9
18:45 1022 30.18 852 25.16 16.1 61 45 4.4 39.9
18:50 1023 30.21 852 25.16 16 60.8 46 4.4 39.9
18:55 1023 30.21 852 25.16 15.9 60.7 46 4.5 40
19:00 1023 30.21 852 25.16 15.8 60.5 48 5 41
19:05 1023 30.21 852 25.16 15.7 60.2 50 5.2 41.4
19:10 1023 30.21 852 25.16 15.4 59.7 51 5.4 41.6
19:15 1023 30.21 852 25.16 15.2 59.3 52 5.3 41.6
19:20 1023 30.21 852 25.16 15 59 51 5.1 41.3
19:25 1023 30.21 852 25.16 14.9 58.8 51 4.9 40.8
19:30 1023 30.21 852 25.16 14.7 58.5 53 5.2 41.4
19:35 1023 30.21 852 25.16 14.6 58.2 53 5.3 41.5
19:40 1023 30.21 852 25.16 14.4 57.8 54 5.2 41.3
19:45 1023 30.21 852 25.16 14.3 57.7 52 4.6 40.2
19:50 1023 30.21 852 25.16 14.3 57.8 51 4.4 39.9
19:55 1023 30.21 853 25.19 14.3 57.7 52 4.5 40.1
20:00 1023 30.21 853 25.19 14.2 57.6 51 4.2 39.6
20:05 1023 30.21 853 25.19 14.2 57.6 53 4.8 40.7
20:10 1023 30.21 853 25.19 13.9 57 53 4.6 40.2
20:15 1023 30.21 853 25.19 13.9 57 52 4.2 39.5
20:20 1023 30.21 853 25.19 14 57.1 53 4.7 40.4
20:25 1024 30.24 853 25.19 13.8 56.8 55 4.9 40.9
20:30 1024 30.24 853 25.19 13.7 56.7 55 5 40.9
20:35 1024 30.24 853 25.19 13.7 56.7 54 4.7 40.4
20:40 1024 30.24 853 25.19 13.7 56.6 54 4.7 40.5
20:45 1024 30.24 853 25.19 13.6 56.5 56 5.1 41.1
20:50 1024 30.24 853 25.19 13.6 56.5 57 5.3 41.5
20:55 1024 30.24 853 25.19 13.7 56.7 55 4.9 40.8
21:00 1024 30.24 853 25.19 13.8 56.8 54 4.7 40.5
21:05 1024 30.24 853 25.19 13.8 56.9 55 4.9 40.8
21:10 1024 30.24 853 25.19 13.8 56.9 55 5 41
21:15 1024 30.24 853 25.19 13.8 56.8 55 5.1 41.2
21:20 1024 30.24 853 25.19 13.8 56.8 56 5.2 41.4
21:25 1024 30.24 853 25.19 13.7 56.6 54 4.7 40.5
21:30 1024 30.24 853 25.19 13.7 56.6 56 5 41
21:35 1024 30.24 853 25.19 13.6 56.5 58 5.4 41.8
21:40 1024 30.24 853 25.19 13.3 56 63 6.5 43.7
21:45 1024 30.24 853 25.19 13.1 55.6 66 6.9 44.4
21:50 1024 30.24 854 25.22 12.9 55.2 68 7.2 44.9
21:55 1024 30.24 854 25.22 12.8 55 70 7.4 45.3
22:00 1024 30.24 854 25.22 12.6 54.7 75 8.4 47.1
22:05 1024 30.24 854 25.22 12.1 53.8 77 8.3 46.9
22:10 1024 30.24 854 25.22 11.6 52.9 77 7.8 46
22:15 1024 30.24 854 25.22 11.3 52.4 78 7.6 45.8
22:20 1024 30.24 854 25.22 11.2 52.2 79 7.8 46.1
22:25 1024 30.24 854 25.22 11 51.8 77 7.1 44.8
22:30 1024 30.24 854 25.22 11 51.9 75 6.7 44.1
22:35 1024 30.24 854 25.22 11.2 52.1 76 7.1 44.7
22:40 1024 30.24 854 25.22 11.2 52.2 79 7.7 45.8
22:45 1024 30.24 854 25.22 11.1 51.9 80 7.8 46.1
22:50 1024 30.24 854 25.22 10.9 51.6 82 7.9 46.2
22:55 1025 30.27 854 25.22 10.8 51.4 83 8.1 46.6
23:00 1025 30.27 854 25.22 10.7 51.2 77 6.9 44.4
23:05 1025 30.27 854 25.22 11 51.8 80 7.8 46
23:10 1025 30.27 854 25.22 10.9 51.6 85 8.4 47.2
23:15 1025 30.27 854 25.22 10.5 51 86 8.3 47
23:20 1025 30.27 854 25.22 10.4 50.7 87 8.3 47
23:25 1025 30.27 854 25.22 10.2 50.3 88 8.3 47
23:30 1024 30.24 854 25.22 10 50 89 8.3 47
23:35 1024 30.24 854 25.22 9.9 49.9 89 8.2 46.8
23:40 1024 30.24 854 25.22 9.9 49.9 88 8 46.4
23:45 1024 30.24 854 25.22 10 49.9 86 7.7 45.9
23:50 1024 30.24 854 25.22 10 50 85 7.7 45.8
23:55 1024 30.24 853 25.19 10 50.1 85 7.6 45.7
24:00 1024 30.24 854 25.22 10 50.1 84 7.5 45.5